createdAt,value
2022-12-11T00:02:04.827Z,-2.49
2022-12-11T00:04:36.867Z,-2.53
2022-12-11T00:07:06.716Z,-2.59
2022-12-11T00:09:35.164Z,-2.62
2022-12-11T00:12:05.417Z,-2.64
2022-12-11T00:14:34.022Z,-2.65
2022-12-11T00:17:03.573Z,-2.67
2022-12-11T00:19:32.948Z,-2.69
2022-12-11T00:22:06.456Z,-2.74
2022-12-11T00:24:34.708Z,-2.79
2022-12-11T00:27:03.171Z,-2.84
2022-12-11T00:29:31.815Z,-2.89
2022-12-11T00:32:00.011Z,-2.93
2022-12-11T00:34:28.341Z,-2.98
2022-12-11T00:36:56.732Z,-3.00
2022-12-11T00:39:25.433Z,-3.01
2022-12-11T00:41:57.150Z,-3.02
2022-12-11T00:44:25.364Z,-3.02
2022-12-11T00:46:53.815Z,-3.05
2022-12-11T00:49:24.539Z,-3.09
2022-12-11T00:51:52.868Z,-3.12
2022-12-11T00:54:22.324Z,-3.15
2022-12-11T00:56:51.283Z,-3.20
2022-12-11T00:59:19.721Z,-3.26
2022-12-11T01:01:47.936Z,-3.29
2022-12-11T01:04:16.081Z,-3.31
2022-12-11T01:06:44.704Z,-3.31
2022-12-11T01:09:32.017Z,-3.32
2022-12-11T01:12:00.512Z,-3.33
2022-12-11T01:14:28.654Z,-3.35
2022-12-11T01:16:56.756Z,-3.38
2022-12-11T01:19:25.602Z,-3.43
2022-12-11T01:21:53.697Z,-3.45
2022-12-11T01:24:21.933Z,-3.50
2022-12-11T01:26:50.246Z,-3.53
2022-12-11T01:29:18.315Z,-3.56
2022-12-11T01:31:46.403Z,-3.57
2022-12-11T01:34:14.936Z,-3.58
2022-12-11T01:36:43.049Z,-3.58
2022-12-11T01:39:11.463Z,-3.59
2022-12-11T01:41:40.258Z,-3.60
2022-12-11T01:44:31.663Z,-3.63
2022-12-11T01:47:01.109Z,-3.67
2022-12-11T01:49:29.696Z,-3.70
2022-12-11T01:52:07.759Z,-3.73
2022-12-11T01:54:36.103Z,-3.77
2022-12-11T01:57:09.467Z,-3.81
2022-12-11T01:59:41.323Z,-3.83
2022-12-11T02:02:16.028Z,-3.84
2022-12-11T02:04:46.329Z,-3.83
2022-12-11T02:07:15.416Z,-3.84
2022-12-11T02:09:46.381Z,-3.86
2022-12-11T02:12:26.851Z,-3.89
2022-12-11T02:15:13.542Z,-3.93
2022-12-11T02:18:09.278Z,-3.98
2022-12-11T02:20:46.694Z,-4.01
2022-12-11T02:23:17.877Z,-4.06
2022-12-11T02:25:56.402Z,-4.09
2022-12-11T02:28:29.686Z,-4.10
2022-12-11T02:31:04.564Z,-4.11
2022-12-11T02:33:50.426Z,-4.12
2022-12-11T02:36:21.528Z,-4.14
2022-12-11T02:38:53.635Z,-4.16
2022-12-11T02:41:23.720Z,-4.18
2022-12-11T02:43:53.956Z,-4.21
2022-12-11T02:46:25.027Z,-4.24
2022-12-11T02:48:55.059Z,-4.29
2022-12-11T02:51:28.911Z,-4.34
2022-12-11T02:53:59.451Z,-4.38
2022-12-11T02:56:40.596Z,-4.39
2022-12-11T02:59:19.785Z,-4.37
2022-12-11T03:01:48.100Z,-4.36
2022-12-11T03:04:16.558Z,-4.38
2022-12-11T03:06:51.343Z,-4.40
2022-12-11T03:09:20.177Z,-4.44
2022-12-11T03:11:48.255Z,-4.47
2022-12-11T03:14:16.474Z,-4.51
2022-12-11T03:16:57.926Z,-4.54
2022-12-11T03:19:36.448Z,-4.58
2022-12-11T03:22:17.089Z,-4.60
2022-12-11T03:24:57.989Z,-4.61
2022-12-11T03:27:28.994Z,-4.60
2022-12-11T03:30:06.129Z,-4.59
2022-12-11T03:32:50.521Z,-4.60
2022-12-11T03:35:37.555Z,-4.62
2022-12-11T03:38:11.109Z,-4.64
2022-12-11T03:40:41.791Z,-4.65
2022-12-11T03:43:11.542Z,-4.67
2022-12-11T03:45:41.502Z,-4.68
2022-12-11T03:48:10.259Z,-4.67
2022-12-11T03:50:40.074Z,-4.66
2022-12-11T03:53:08.944Z,-4.63
2022-12-11T03:55:40.186Z,-4.61
2022-12-11T03:58:08.559Z,-4.60
2022-12-11T04:00:37.195Z,-4.59
2022-12-11T04:03:14.846Z,-4.58
2022-12-11T04:05:49.635Z,-4.58
2022-12-11T04:08:23.067Z,-4.57
2022-12-11T04:11:12.253Z,-4.58
2022-12-11T04:13:41.709Z,-4.66
2022-12-11T04:16:10.070Z,-4.69
2022-12-11T04:18:57.092Z,-4.68
2022-12-11T04:21:43.823Z,-4.65
2022-12-11T04:24:15.381Z,-4.60
2022-12-11T04:26:45.603Z,-4.55
2022-12-11T04:29:14.192Z,-4.51
2022-12-11T04:31:42.651Z,-4.48
2022-12-11T04:34:10.828Z,-4.45
2022-12-11T04:36:38.933Z,-4.43
2022-12-11T04:39:07.115Z,-4.41
2022-12-11T04:41:37.287Z,-4.40
2022-12-11T04:44:05.747Z,-4.39
2022-12-11T04:46:34.492Z,-4.38
2022-12-11T04:49:02.728Z,-4.35
2022-12-11T04:51:30.914Z,-4.30
2022-12-11T04:54:00.378Z,-4.25
2022-12-11T04:56:28.559Z,-4.21
2022-12-11T04:58:56.632Z,-4.17
2022-12-11T05:01:24.796Z,-4.15
2022-12-11T05:03:53.025Z,-4.13
2022-12-11T05:06:21.152Z,-4.13
2022-12-11T05:08:49.280Z,-4.11
2022-12-11T05:11:18.262Z,-4.10
2022-12-11T05:13:46.477Z,-4.09
2022-12-11T05:16:16.516Z,-4.06
2022-12-11T05:18:45.146Z,-4.03
2022-12-11T05:21:15.317Z,-3.98
2022-12-11T05:23:43.518Z,-3.93
2022-12-11T05:26:15.262Z,-3.91
2022-12-11T05:28:43.705Z,-3.90
2022-12-11T05:31:15.098Z,-3.89
2022-12-11T05:33:45.332Z,-3.89
2022-12-11T05:36:33.630Z,-3.90
2022-12-11T05:39:04.063Z,-3.93
2022-12-11T05:41:34.080Z,-3.95
2022-12-11T05:44:02.162Z,-3.96
2022-12-11T05:46:31.408Z,-3.95
2022-12-11T05:49:01.925Z,-3.92
2022-12-11T05:51:30.898Z,-3.90
2022-12-11T05:53:59.132Z,-3.89
2022-12-11T05:56:33.421Z,-3.87
2022-12-11T05:59:03.482Z,-3.85
2022-12-11T06:01:33.245Z,-3.84
2022-12-11T06:04:02.340Z,-3.86
2022-12-11T06:06:30.673Z,-3.85
2022-12-11T06:09:00.771Z,-3.85
2022-12-11T06:11:33.485Z,-3.87
2022-12-11T06:14:03.417Z,-3.86
2022-12-11T06:16:32.349Z,-3.82
2022-12-11T06:19:00.618Z,-3.81
2022-12-11T06:21:31.384Z,-3.79
2022-12-11T06:24:03.119Z,-3.75
2022-12-11T06:26:32.328Z,-3.74
2022-12-11T06:29:00.544Z,-3.74
2022-12-11T06:31:28.920Z,-3.73
2022-12-11T06:33:58.244Z,-3.73
2022-12-11T06:36:28.708Z,-3.75
2022-12-11T06:38:59.144Z,-3.78
2022-12-11T06:41:27.585Z,-3.79
2022-12-11T06:43:55.689Z,-3.77
2022-12-11T06:46:27.846Z,-3.73
2022-12-11T06:48:56.122Z,-3.71
2022-12-11T06:51:24.674Z,-3.71
2022-12-11T06:53:56.351Z,-3.70
2022-12-11T06:56:28.975Z,-3.71
2022-12-11T06:59:02.891Z,-3.74
2022-12-11T07:01:34.096Z,-3.76
2022-12-11T07:04:02.559Z,-3.80
2022-12-11T07:06:34.747Z,-3.85
2022-12-11T07:09:07.196Z,-3.88
2022-12-11T07:11:36.586Z,-3.91
2022-12-11T07:14:05.496Z,-3.91
2022-12-11T07:16:37.885Z,-3.89
2022-12-11T07:19:06.737Z,-3.86
2022-12-11T07:21:34.882Z,-3.84
2022-12-11T07:24:03.692Z,-3.82
2022-12-11T07:26:32.986Z,-3.82
2022-12-11T07:29:04.493Z,-3.82
2022-12-11T07:31:33.200Z,-3.82
2022-12-11T07:34:04.478Z,-3.82
2022-12-11T07:36:35.151Z,-3.84
2022-12-11T07:39:05.127Z,-3.84
2022-12-11T07:41:34.292Z,-3.83
2022-12-11T07:44:03.921Z,-3.80
2022-12-11T07:46:34.104Z,-3.76
2022-12-11T07:49:02.972Z,-3.73
2022-12-11T07:51:36.419Z,-3.70
2022-12-11T07:54:10.969Z,-3.68
2022-12-11T07:56:43.690Z,-3.66
2022-12-11T07:59:12.649Z,-3.64
2022-12-11T08:01:42.252Z,-3.64
2022-12-11T08:04:15.920Z,-3.62
2022-12-11T08:06:44.447Z,-3.61
2022-12-11T08:09:20.944Z,-3.60
2022-12-11T08:11:50.870Z,-3.57
2022-12-11T08:14:20.013Z,-3.54
2022-12-11T08:16:49.100Z,-3.49
2022-12-11T08:19:18.057Z,-3.42
2022-12-11T08:21:46.995Z,-3.39
2022-12-11T08:24:16.572Z,-3.38
2022-12-11T08:26:44.718Z,-3.38
2022-12-11T08:29:12.993Z,-3.39
2022-12-11T08:31:42.204Z,-3.39
2022-12-11T08:34:13.958Z,-3.37
2022-12-11T08:36:42.227Z,-3.36
2022-12-11T08:39:10.351Z,-3.33
2022-12-11T08:41:38.635Z,-3.28
2022-12-11T08:44:16.253Z,-3.24
2022-12-11T08:46:47.147Z,-3.18
2022-12-11T08:49:15.430Z,-3.14
2022-12-11T08:51:44.082Z,-3.12
2022-12-11T08:54:16.002Z,-3.10
2022-12-11T08:56:44.222Z,-3.10
2022-12-11T08:59:12.372Z,-3.10
2022-12-11T09:01:40.647Z,-3.10
2022-12-11T09:04:09.063Z,-3.10
2022-12-11T09:06:37.155Z,-3.07
2022-12-11T09:09:05.675Z,-3.02
2022-12-11T09:11:36.454Z,-2.95
2022-12-11T09:14:07.902Z,-2.88
2022-12-11T09:16:40.612Z,-2.83
2022-12-11T09:19:16.592Z,-2.78
2022-12-11T09:21:45.379Z,-2.75
2022-12-11T09:24:14.320Z,-2.72
2022-12-11T09:26:42.653Z,-2.70
2022-12-11T09:29:12.434Z,-2.69
2022-12-11T09:31:40.926Z,-2.68
2022-12-11T09:34:12.633Z,-2.67
2022-12-11T09:36:42.203Z,-2.62
2022-12-11T09:39:12.946Z,-2.55
2022-12-11T09:42:20.169Z,-2.47
2022-12-11T09:44:55.311Z,-2.38
2022-12-11T09:47:26.217Z,-2.31
2022-12-11T09:50:09.718Z,-2.26
2022-12-11T09:53:04.689Z,-2.21
2022-12-11T09:55:46.075Z,-2.13
2022-12-11T09:58:18.852Z,-2.06
2022-12-11T10:00:52.743Z,-1.99
2022-12-11T10:03:46.616Z,-1.90
2022-12-11T10:06:38.543Z,-1.80
2022-12-11T10:09:25.611Z,-1.70
2022-12-11T10:12:02.493Z,-1.61
2022-12-11T10:14:33.432Z,-1.56
2022-12-11T10:17:12.646Z,-1.53
2022-12-11T10:19:42.517Z,-1.51
2022-12-11T10:22:33.347Z,-1.48
2022-12-11T10:25:23.553Z,-1.43
2022-12-11T10:27:52.497Z,-1.34
2022-12-11T10:30:21.127Z,-1.27
2022-12-11T10:33:11.482Z,-1.21
2022-12-11T10:35:45.862Z,-1.19
2022-12-11T10:38:31.462Z,-1.20
2022-12-11T10:41:06.278Z,-1.23
2022-12-11T10:43:41.736Z,-1.26
2022-12-11T10:46:23.427Z,-1.27
2022-12-11T10:48:53.762Z,-1.24
2022-12-11T10:51:25.225Z,-1.21
2022-12-11T10:54:00.369Z,-1.18
2022-12-11T10:56:34.271Z,-1.16
2022-12-11T10:59:02.927Z,-1.13
2022-12-11T11:01:33.138Z,-1.13
2022-12-11T11:04:06.800Z,-1.16
2022-12-11T11:06:34.982Z,-1.19
2022-12-11T11:09:04.339Z,-1.21
2022-12-11T11:11:39.626Z,-1.22
2022-12-11T11:14:17.891Z,-1.23
2022-12-11T11:16:48.581Z,-1.23
2022-12-11T11:19:27.052Z,-1.21
2022-12-11T11:22:02.290Z,-1.20
2022-12-11T11:24:39.865Z,-1.19
2022-12-11T11:27:30.221Z,-1.17
2022-12-11T11:30:03.405Z,-1.16
2022-12-11T11:32:36.520Z,-1.12
2022-12-11T11:35:29.258Z,-1.06
2022-12-11T11:38:18.791Z,-1.00
2022-12-11T11:41:04.793Z,-0.96
2022-12-11T11:43:40.819Z,-0.95
2022-12-11T11:46:18.586Z,-0.92
2022-12-11T11:48:53.985Z,-0.92
2022-12-11T11:51:34.692Z,-0.94
2022-12-11T11:54:30.213Z,-0.93
2022-12-11T11:56:59.901Z,-0.93
2022-12-11T11:59:45.677Z,-0.91
2022-12-11T12:02:16.883Z,-0.88
2022-12-11T12:04:46.811Z,-0.86
2022-12-11T12:07:18.349Z,-0.87
2022-12-11T12:09:54.376Z,-0.86
2022-12-11T12:12:29.756Z,-0.83
2022-12-11T12:15:41.567Z,-0.82
2022-12-11T12:18:20.310Z,-0.79
2022-12-11T12:21:03.068Z,-0.76
2022-12-11T12:23:56.189Z,-0.75
2022-12-11T12:26:31.224Z,-0.78
2022-12-11T12:29:16.820Z,-0.82
2022-12-11T12:31:59.209Z,-0.89
2022-12-11T12:34:38.150Z,-0.94
2022-12-11T12:37:06.212Z,-0.93
2022-12-11T12:40:11.461Z,-0.91
2022-12-11T12:43:06.547Z,-0.88
2022-12-11T12:46:08.231Z,-0.84
2022-12-11T12:48:36.593Z,-0.81
2022-12-11T12:51:05.425Z,-0.82
2022-12-11T12:53:36.969Z,-0.84
2022-12-11T12:56:06.541Z,-0.85
2022-12-11T12:58:34.945Z,-0.86
2022-12-11T13:01:17.992Z,-0.90
2022-12-11T13:04:08.649Z,-0.90
2022-12-11T13:06:47.453Z,-0.88
2022-12-11T13:09:23.669Z,-0.86
2022-12-11T13:11:57.825Z,-0.85
2022-12-11T13:14:32.702Z,-0.85
2022-12-11T13:17:21.111Z,-0.86
2022-12-11T13:19:53.094Z,-0.86
2022-12-11T13:22:24.010Z,-0.87
2022-12-11T13:24:52.165Z,-0.87
2022-12-11T13:27:43.030Z,-0.86
2022-12-11T13:30:14.296Z,-0.81
2022-12-11T13:33:00.926Z,-0.75
2022-12-11T13:35:30.854Z,-0.69
2022-12-11T13:38:07.307Z,-0.66
2022-12-11T13:40:40.218Z,-0.64
2022-12-11T13:43:19.080Z,-0.66
2022-12-11T13:45:51.040Z,-0.66
2022-12-11T13:48:25.000Z,-0.68
2022-12-11T13:50:54.138Z,-0.72
2022-12-11T13:53:24.022Z,-0.74
2022-12-11T13:56:01.774Z,-0.75
2022-12-11T13:58:34.037Z,-0.74
2022-12-11T14:01:08.301Z,-0.75
2022-12-11T14:03:40.216Z,-0.76
2022-12-11T14:06:18.220Z,-0.80
2022-12-11T14:08:52.091Z,-0.84
2022-12-11T14:11:55.038Z,-0.88
2022-12-11T14:14:49.952Z,-0.92
2022-12-11T14:17:30.648Z,-0.97
2022-12-11T14:20:03.162Z,-0.99
2022-12-11T14:22:31.438Z,-1.02
2022-12-11T14:25:03.789Z,-1.05
2022-12-11T14:27:31.958Z,-1.05
2022-12-11T14:30:11.455Z,-1.06
2022-12-11T14:32:45.154Z,-1.05
2022-12-11T14:35:43.858Z,-1.04
2022-12-11T14:38:37.560Z,-1.04
2022-12-11T14:41:14.379Z,-1.03
2022-12-11T14:48:22.328Z,-0.93
2022-12-11T14:50:58.053Z,-0.88
2022-12-11T14:53:28.026Z,-0.84
2022-12-11T14:55:57.978Z,-0.81
2022-12-11T14:58:28.102Z,-0.81
2022-12-11T15:01:00.740Z,-0.81
2022-12-11T15:03:35.213Z,-0.83
2022-12-11T15:06:26.182Z,-0.85
2022-12-11T15:08:55.238Z,-0.85
2022-12-11T15:11:30.431Z,-0.84
2022-12-11T15:14:03.138Z,-0.84
2022-12-11T15:16:38.626Z,-0.85
2022-12-11T15:19:07.055Z,-0.84
2022-12-11T15:21:36.999Z,-0.84
2022-12-11T15:24:07.176Z,-0.85
2022-12-11T15:26:57.377Z,-0.89
2022-12-11T15:34:27.070Z,-0.95
2022-12-11T15:37:03.320Z,-0.96
2022-12-11T15:40:06.808Z,-1.01
2022-12-11T15:42:41.882Z,-0.93
2022-12-11T15:45:23.139Z,-0.89
2022-12-11T15:47:52.891Z,-0.87
2022-12-11T15:50:28.529Z,-0.84
2022-12-11T15:53:00.494Z,-0.83
2022-12-11T15:55:36.137Z,-0.82
2022-12-11T15:58:17.698Z,-0.80
2022-12-11T16:00:55.374Z,-0.79
2022-12-11T16:04:01.814Z,-0.75
2022-12-11T16:06:34.430Z,-0.71
2022-12-11T16:09:34.896Z,-0.68
2022-12-11T16:12:06.792Z,-0.66
2022-12-11T16:14:38.338Z,-0.64
2022-12-11T16:17:26.160Z,-0.63
2022-12-11T16:20:08.178Z,-0.63
2022-12-11T16:22:47.338Z,-0.62
2022-12-11T16:25:20.921Z,-0.60
2022-12-11T16:30:49.939Z,-0.54
2022-12-11T16:33:18.642Z,-0.53
2022-12-11T16:35:49.795Z,-0.54
2022-12-11T16:38:43.048Z,-0.63
2022-12-11T16:43:57.627Z,-0.63
2022-12-11T16:46:32.510Z,-0.65
2022-12-11T16:49:00.773Z,-0.70
2022-12-11T16:51:29.031Z,-0.70
2022-12-11T16:53:57.261Z,-0.65
2022-12-11T16:56:26.784Z,-0.60
2022-12-11T16:58:55.248Z,-0.55
2022-12-11T17:01:23.536Z,-0.52
2022-12-11T17:03:53.444Z,-0.48
2022-12-11T17:06:21.979Z,-0.47
2022-12-11T17:08:55.027Z,-0.48
2022-12-11T17:11:27.874Z,-0.45
2022-12-11T17:13:59.497Z,-0.44
2022-12-11T17:16:34.275Z,-0.44
2022-12-11T17:19:03.682Z,-0.45
2022-12-11T17:21:34.141Z,-0.44
2022-12-11T17:24:02.382Z,-0.45
2022-12-11T17:26:31.088Z,-0.48
2022-12-11T17:29:01.386Z,-0.52
2022-12-11T17:31:29.899Z,-0.56
2022-12-11T17:34:03.411Z,-0.60
2022-12-11T17:36:31.882Z,-0.60
2022-12-11T17:39:00.032Z,-0.61
2022-12-11T17:41:28.183Z,-0.63
2022-12-11T17:44:01.125Z,-0.65
2022-12-11T17:46:29.428Z,-0.69
2022-12-11T17:49:00.271Z,-0.74
2022-12-11T17:51:28.703Z,-0.80
2022-12-11T17:53:57.392Z,-0.85
2022-12-11T17:56:26.203Z,-0.89
2022-12-11T17:58:57.072Z,-0.91
2022-12-11T18:01:25.486Z,-0.93
2022-12-11T18:03:53.925Z,-0.94
2022-12-11T18:06:27.161Z,-0.97
2022-12-11T18:09:30.042Z,-0.97
2022-12-11T18:11:59.060Z,-1.00
2022-12-11T18:14:59.186Z,-1.02
2022-12-11T18:17:38.649Z,-1.04
2022-12-11T18:20:24.676Z,-1.04
2022-12-11T18:22:53.409Z,-1.03
2022-12-11T18:25:21.897Z,-1.02
2022-12-11T18:27:50.857Z,-0.99
2022-12-11T18:30:19.752Z,-0.98
2022-12-11T18:35:33.237Z,-1.00
2022-12-11T18:38:16.665Z,-1.03
2022-12-11T18:40:48.233Z,-1.06
2022-12-11T18:43:16.607Z,-1.10
2022-12-11T18:45:45.840Z,-1.10
2022-12-11T18:48:15.092Z,-1.09
2022-12-11T18:50:51.594Z,-1.08
2022-12-11T18:53:19.949Z,-1.07
2022-12-11T18:55:49.617Z,-1.07
2022-12-11T18:58:19.774Z,-1.08
2022-12-11T19:00:47.968Z,-1.10
2022-12-11T19:03:16.317Z,-1.12
2022-12-11T19:05:44.596Z,-1.14
2022-12-11T19:08:14.077Z,-1.14
2022-12-11T19:10:47.450Z,-1.14
2022-12-11T19:13:15.702Z,-1.16
2022-12-11T19:15:44.800Z,-1.16
2022-12-11T19:18:14.670Z,-1.15
2022-12-11T19:20:49.454Z,-1.15
2022-12-11T19:23:23.252Z,-1.15
2022-12-11T19:25:52.157Z,-1.14
2022-12-11T19:28:20.359Z,-1.14
2022-12-11T19:30:52.597Z,-1.12
2022-12-11T19:33:20.924Z,-1.08
2022-12-11T19:35:49.130Z,-1.05
2022-12-11T19:38:17.311Z,-1.03
2022-12-11T19:40:47.360Z,-1.00
2022-12-11T19:43:15.673Z,-1.01
2022-12-11T19:45:46.041Z,-1.02
2022-12-11T19:48:17.509Z,-1.02
2022-12-11T19:50:51.201Z,-1.03
2022-12-11T19:53:19.480Z,-1.02
2022-12-11T19:55:52.323Z,-1.00
2022-12-11T19:58:23.123Z,-0.98
2022-12-11T20:00:51.397Z,-0.98
2022-12-11T20:03:45.285Z,-0.99
2022-12-11T20:06:13.928Z,-0.99
2022-12-11T20:08:45.178Z,-0.99
2022-12-11T20:11:18.692Z,-1.00
2022-12-11T20:13:48.401Z,-1.00
2022-12-11T20:16:28.831Z,-1.00
2022-12-11T20:19:09.165Z,-0.98
2022-12-11T20:21:37.480Z,-0.97
2022-12-11T20:24:05.948Z,-0.96
2022-12-11T20:26:36.545Z,-0.97
2022-12-11T20:29:08.155Z,-0.98
2022-12-11T20:32:04.958Z,-0.99
2022-12-11T20:34:52.463Z,-1.01
2022-12-11T20:37:20.694Z,-1.02
2022-12-11T20:39:51.276Z,-1.02
2022-12-11T20:42:57.526Z,-1.02
2022-12-11T20:45:27.362Z,-1.01
2022-12-11T20:47:56.912Z,-0.98
2022-12-11T20:50:28.301Z,-0.97
2022-12-11T20:52:56.846Z,-0.98
2022-12-11T20:55:26.504Z,-1.00
2022-12-11T21:01:29.255Z,-1.03
2022-12-11T21:09:09.773Z,-1.02
2022-12-11T21:11:57.594Z,-0.98
2022-12-11T21:14:29.283Z,-0.98
2022-12-11T21:16:58.250Z,-0.98
2022-12-11T21:19:27.406Z,-0.99
2022-12-11T21:21:56.396Z,-1.01
2022-12-11T21:24:27.547Z,-1.02
2022-12-11T21:26:59.196Z,-1.02
2022-12-11T21:29:29.547Z,-1.00
2022-12-11T21:31:58.189Z,-0.98
2022-12-11T21:34:27.019Z,-0.96
2022-12-11T21:36:57.505Z,-0.96
2022-12-11T21:39:28.299Z,-0.97
2022-12-11T21:41:58.218Z,-0.99
2022-12-11T21:47:14.836Z,-1.04
2022-12-11T21:49:46.161Z,-1.05
2022-12-11T21:52:17.108Z,-1.04
2022-12-11T21:54:45.467Z,-1.06
2022-12-11T21:57:13.696Z,-1.03
2022-12-11T21:59:47.294Z,-1.04
2022-12-11T22:02:15.661Z,-1.09
2022-12-11T22:04:43.872Z,-1.12
2022-12-11T22:07:12.012Z,-1.13
2022-12-11T22:09:40.224Z,-1.15
2022-12-11T22:12:10.072Z,-1.16
2022-12-11T22:14:38.260Z,-1.16
2022-12-11T22:17:11.215Z,-1.16
2022-12-11T22:19:39.361Z,-1.17
2022-12-11T22:22:08.573Z,-1.18
2022-12-11T22:24:42.883Z,-1.20
2022-12-11T22:27:12.038Z,-1.22
2022-12-11T22:29:43.202Z,-1.23
2022-12-11T22:32:14.555Z,-1.27
2022-12-11T22:34:42.754Z,-1.28
2022-12-11T22:37:13.605Z,-1.28
2022-12-11T22:39:47.020Z,-1.28
2022-12-11T22:42:21.947Z,-1.27
2022-12-11T22:44:53.145Z,-1.28
2022-12-11T22:47:21.464Z,-1.32
2022-12-11T22:49:50.267Z,-1.35
2022-12-11T22:52:19.655Z,-1.38
2022-12-11T22:54:51.666Z,-1.39
2022-12-11T22:57:22.896Z,-1.41
2022-12-11T22:59:56.724Z,-1.40
2022-12-11T23:02:27.526Z,-1.38
2022-12-11T23:04:55.859Z,-1.37
2022-12-11T23:07:26.659Z,-1.38
2022-12-11T23:10:32.509Z,-1.39
2022-12-11T23:13:05.455Z,-1.42
2022-12-11T23:15:34.852Z,-1.45
2022-12-11T23:18:10.979Z,-1.48
2022-12-11T23:20:40.696Z,-1.56
2022-12-11T23:23:12.796Z,-1.48
2022-12-11T23:25:43.568Z,-1.48
2022-12-11T23:28:28.470Z,-1.51
